Time;durP1;ratioP1;P1;durP2;ratioP2;P2;SDS_P1;SDS_P2;PMS_P1;PMS_P2;Temp;Humidity;BMP_temperature;BMP_pressure;BME280_temperature;BME280_humidity;BME280_pressure;Samples;Min_cycle;Max_cycle;Signal;HPM_P1;HPM_P2
2023/12/22 00:00:11;;;;;;;23.52;11.82;;;;;;;0.73;77.63;92419.47;5062708;28;20025;-85
2023/12/22 00:02:36;;;;;;;28.23;13.32;;;;;;;0.77;77.57;92408.16;5063022;28;20131;-85
2023/12/22 00:05:02;;;;;;;26.58;12.80;;;;;;;0.78;77.54;92398.44;5063013;28;20036;-84
2023/12/22 00:07:28;;;;;;;24.50;12.13;;;;;;;0.85;77.33;92406.69;5062588;28;20032;-85
2023/12/22 00:09:53;;;;;;;27.77;12.38;;;;;;;0.86;77.30;92405.66;5063198;28;20288;-85
2023/12/22 00:12:19;;;;;;;27.08;12.75;;;;;;;0.80;77.65;92394.44;5062705;28;20031;-85
2023/12/22 00:14:44;;;;;;;25.65;13.07;;;;;;;0.88;77.35;92403.50;5062753;28;20052;-85
2023/12/22 00:17:10;;;;;;;32.75;12.82;;;;;;;0.90;77.24;92405.84;5062853;28;20086;-84
2023/12/22 00:19:35;;;;;;;25.15;13.00;;;;;;;0.92;77.16;92399.25;5061940;28;20025;-85
2023/12/22 00:22:03;;;;;;;31.13;13.13;;;;;;;0.90;77.39;92390.88;5062648;28;20047;-85
2023/12/22 00:24:29;;;;;;;25.40;12.50;;;;;;;0.89;77.60;92399.81;5062888;28;20024;-85
2023/12/22 00:26:54;;;;;;;27.23;11.85;;;;;;;0.92;77.69;92393.22;5062769;28;20092;-85
2023/12/22 00:29:20;;;;;;;28.83;12.35;;;;;;;0.95;77.75;92388.16;5062879;28;20049;-85
2023/12/22 00:31:45;;;;;;;26.65;13.63;;;;;;;0.98;77.61;92392.84;5062931;28;20096;-85
2023/12/22 00:34:10;;;;;;;27.15;12.52;;;;;;;0.98;77.33;92369.22;5062933;28;20223;-85
2023/12/22 00:36:36;;;;;;;31.02;11.63;;;;;;;1.01;77.40;92352.13;5066482;28;20370;-85
2023/12/22 00:39:01;;;;;;;24.45;11.77;;;;;;;1.07;77.17;92355.44;5066886;28;20037;-86
2023/12/22 00:41:27;;;;;;;25.02;11.13;;;;;;;1.04;77.02;92338.44;5066556;28;20035;-85
2023/12/22 00:43:52;;;;;;;25.83;12.30;;;;;;;1.04;77.25;92321.88;5066569;28;20025;-85
2023/12/22 00:46:18;;;;;;;20.23;10.38;;;;;;;1.00;77.17;92348.72;5065250;28;20100;-85
2023/12/22 00:48:44;;;;;;;25.70;10.23;;;;;;;0.96;77.14;92318.88;5065443;28;20569;-84
2023/12/22 00:51:09;;;;;;;26.55;9.68;;;;;;;0.94;77.63;92339.41;5064937;28;20025;-84
2023/12/22 00:53:35;;;;;;;19.02;9.25;;;;;;;0.88;77.71;92340.56;5066139;28;20051;-85
2023/12/22 00:56:02;;;;;;;27.48;9.80;;;;;;;0.95;77.51;92340.94;5066246;28;20024;-84
2023/12/22 00:58:28;;;;;;;19.27;9.48;;;;;;;1.02;77.25;92345.81;5064776;28;20047;-86
2023/12/22 01:00:53;;;;;;;18.20;8.65;;;;;;;1.05;77.45;92341.81;5066243;28;20219;-85
2023/12/22 01:03:19;;;;;;;21.58;10.30;;;;;;;1.05;77.15;92344.44;5064910;28;20118;-86
2023/12/22 01:05:44;;;;;;;24.50;9.40;;;;;;;1.16;76.97;92349.22;5064961;28;20033;-85
2023/12/22 01:08:09;;;;;;;23.25;10.40;;;;;;;1.22;77.15;92344.63;5065783;28;20024;-85
2023/12/22 01:10:35;;;;;;;19.40;8.45;;;;;;;1.27;76.38;92357.69;5066184;28;20017;-85
2023/12/22 01:13:00;;;;;;;24.35;9.75;;;;;;;1.27;76.80;92356.91;5065615;28;20063;-85
2023/12/22 01:15:26;;;;;;;19.08;9.07;;;;;;;1.34;76.70;92359.91;5065966;28;20315;-85
2023/12/22 01:17:51;;;;;;;21.08;9.38;;;;;;;1.35;77.14;92353.59;5065957;28;20097;-84
2023/12/22 01:20:16;;;;;;;18.10;9.18;;;;;;;1.44;76.92;92349.22;5065802;28;20055;-86
2023/12/22 01:22:42;;;;;;;21.30;9.73;;;;;;;1.46;76.75;92362.06;5065917;28;20020;-86
2023/12/22 01:25:07;;;;;;;17.70;8.48;;;;;;;1.52;76.42;92332.00;5064465;28;20020;-86
2023/12/22 01:27:32;;;;;;;23.90;10.57;;;;;;;1.55;76.32;92331.41;5065429;28;20016;-85
2023/12/22 01:29:58;;;;;;;22.00;9.95;;;;;;;1.50;76.05;92345.41;5065687;28;20036;-86
2023/12/22 01:32:23;;;;;;;22.67;10.75;;;;;;;1.57;76.09;92342.41;5065502;28;20323;-86
2023/12/22 01:34:49;;;;;;;25.05;9.60;;;;;;;1.63;75.43;92322.06;5064090;28;20017;-83
2023/12/22 01:37:14;;;;;;;20.85;11.13;;;;;;;1.63;75.32;92332.56;5064321;28;20024;-83
2023/12/22 01:39:39;;;;;;;21.92;10.88;;;;;;;1.63;75.33;92322.06;5065166;28;20023;-84
2023/12/22 01:42:05;;;;;;;29.88;10.60;;;;;;;1.70;74.88;92325.84;5065201;28;20021;-84
2023/12/22 01:44:30;;;;;;;26.38;10.55;;;;;;;1.68;74.97;92317.47;5064116;28;20092;-84
2023/12/22 01:46:56;;;;;;;23.30;11.73;;;;;;;1.71;75.10;92309.00;5062851;28;20016;-84
2023/12/22 01:49:22;;;;;;;31.88;12.38;;;;;;;1.73;75.10;92306.88;5064056;28;20021;-84
2023/12/22 01:51:48;;;;;;;23.40;11.07;;;;;;;1.69;74.89;92292.78;5065112;28;20096;-85
2023/12/22 01:54:15;;;;;;;23.95;11.15;;;;;;;1.76;74.60;92293.13;5063786;28;20064;-85
2023/12/22 01:56:42;;;;;;;24.30;10.32;;;;;;;1.77;74.14;92305.22;5064959;28;20017;-84
2023/12/22 01:59:08;;;;;;;22.55;10.85;;;;;;;1.73;74.57;92303.44;5064923;28;20021;-84
2023/12/22 02:01:34;;;;;;;30.25;10.75;;;;;;;1.72;74.63;92262.50;5063724;28;20279;-85
2023/12/22 02:04:00;;;;;;;28.63;11.75;;;;;;;1.76;74.25;92282.63;5065252;28;20188;-85
2023/12/22 02:06:26;;;;;;;21.10;10.18;;;;;;;1.76;74.47;92274.75;5063761;28;20101;-86
2023/12/22 02:08:51;;;;;;;20.75;10.20;;;;;;;1.75;74.71;92280.28;5063926;28;20258;-86
2023/12/22 02:11:16;;;;;;;21.77;11.02;;;;;;;1.66;74.72;92297.84;5064610;28;20021;-84
2023/12/22 02:13:45;;;;;;;22.20;10.70;;;;;;;1.73;74.38;92275.34;5064727;28;20021;-86
2023/12/22 02:16:45;;;;;;;20.25;10.43;;;;;;;1.78;74.60;92283.09;5064935;28;20038;-86
2023/12/22 02:19:28;;;;;;;23.48;9.60;;;;;;;1.88;74.39;92289.22;5064314;28;20032;-86
2023/12/22 02:22:04;;;;;;;24.45;10.60;;;;;;;1.86;74.43;92292.13;5064943;28;20096;-85
2023/12/22 02:24:32;;;;;;;22.95;10.77;;;;;;;1.90;74.24;92300.22;5063307;28;20032;-85
2023/12/22 02:27:05;;;;;;;22.27;11.00;;;;;;;1.92;74.32;92272.56;5064363;28;20025;-84
2023/12/22 02:29:43;;;;;;;22.13;10.55;;;;;;;1.94;74.36;92280.16;5064385;28;20049;-83
2023/12/22 02:32:13;;;;;;;19.40;9.77;;;;;;;1.93;74.40;92273.31;5064127;28;20287;-83
2023/12/22 02:34:43;;;;;;;25.25;11.57;;;;;;;1.95;74.36;92268.56;5064227;28;20020;-83
2023/12/22 02:37:10;;;;;;;20.42;11.13;;;;;;;2.01;73.95;92283.13;5064327;28;20013;-83
2023/12/22 02:39:36;;;;;;;23.10;10.52;;;;;;;2.04;73.88;92285.16;5064078;28;20072;-83
2023/12/22 02:42:04;;;;;;;21.90;10.52;;;;;;;2.06;74.00;92275.13;5064073;28;20024;-83
2023/12/22 02:44:29;;;;;;;23.83;10.93;;;;;;;2.07;73.75;92284.56;5063988;28;20017;-84
2023/12/22 02:46:55;;;;;;;17.40;10.40;;;;;;;2.04;74.02;92271.25;5063922;28;20036;-83
2023/12/22 02:49:20;;;;;;;20.35;10.65;;;;;;;2.03;74.00;92274.94;5064053;28;20036;-83
2023/12/22 02:51:45;;;;;;;20.48;10.00;;;;;;;2.04;73.90;92279.16;5063832;28;20029;-83
2023/12/22 02:54:11;;;;;;;21.67;11.45;;;;;;;2.07;74.16;92273.28;5063008;28;20020;-85
2023/12/22 02:56:36;;;;;;;26.10;10.48;;;;;;;2.07;74.47;92268.03;5064131;28;20039;-86
2023/12/22 02:59:02;;;;;;;21.90;10.55;;;;;;;2.06;74.62;92246.22;5063675;28;20036;-85
2023/12/22 03:01:27;;;;;;;29.10;11.35;;;;;;;2.04;74.56;92242.34;5063788;28;20017;-83
2023/12/22 03:03:52;;;;;;;19.70;9.48;;;;;;;2.06;74.58;92235.72;5063955;28;20024;-84
2023/12/22 03:06:18;;;;;;;25.80;10.63;;;;;;;2.12;74.40;92239.78;5064138;28;20017;-84
2023/12/22 03:08:43;;;;;;;20.70;9.90;;;;;;;2.14;74.19;92231.59;5063760;28;20319;-84
2023/12/22 03:11:08;;;;;;;22.08;10.30;;;;;;;2.18;73.77;92233.31;5063806;28;20264;-84
2023/12/22 03:13:34;;;;;;;22.15;9.40;;;;;;;2.21;73.99;92227.44;5062328;28;20100;-84
2023/12/22 03:15:59;;;;;;;26.52;11.13;;;;;;;2.25;73.80;92242.63;5063689;28;20039;-84
2023/12/22 03:18:24;;;;;;;21.15;9.77;;;;;;;2.21;74.07;92242.44;5063751;28;20346;-87
2023/12/22 03:20:50;;;;;;;27.33;11.18;;;;;;;2.23;74.08;92250.03;5064027;28;20085;-88
2023/12/22 03:23:15;;;;;;;23.80;9.82;;;;;;;2.31;73.82;92251.94;5063604;28;20092;-86
2023/12/22 03:25:41;;;;;;;20.38;9.25;;;;;;;2.29;73.80;92259.34;5063852;28;20037;-88
2023/12/22 03:28:07;;;;;;;22.92;10.13;;;;;;;2.29;73.79;92261.97;5063447;28;20020;-86
2023/12/22 03:30:32;;;;;;;17.45;8.82;;;;;;;2.33;74.07;92247.94;5062250;28;20369;-86
2023/12/22 03:32:57;;;;;;;31.23;10.40;;;;;;;2.37;74.34;92271.78;5063363;28;20020;-86
2023/12/22 03:35:23;;;;;;;24.08;11.07;;;;;;;2.38;74.82;92270.69;5063553;28;20244;-86
2023/12/22 03:37:48;;;;;;;32.10;11.40;;;;;;;2.37;74.79;92256.00;5063086;28;20020;-85
2023/12/22 03:40:13;;;;;;;23.73;11.05;;;;;;;2.41;74.89;92265.59;5063048;28;20066;-85
2023/12/22 03:42:39;;;;;;;27.48;11.63;;;;;;;2.39;75.27;92264.38;5063248;28;20096;-86
2023/12/22 03:45:05;;;;;;;21.45;10.45;;;;;;;2.34;74.70;92251.34;5062149;28;20027;-85
2023/12/22 03:47:30;;;;;;;20.55;10.70;;;;;;;2.35;75.01;92252.91;5062990;28;20021;-85
2023/12/22 03:49:56;;;;;;;22.05;10.65;;;;;;;2.32;75.12;92237.72;5063026;28;20025;-85
2023/12/22 03:52:21;;;;;;;22.02;10.23;;;;;;;2.33;75.18;92255.06;5062901;28;20029;-85
2023/12/22 03:54:46;;;;;;;19.98;10.00;;;;;;;2.37;75.20;92240.22;5061715;28;20272;-85
2023/12/22 03:57:12;;;;;;;21.88;11.02;;;;;;;2.38;75.47;92247.81;5062791;28;20051;-85
2023/12/22 03:59:37;;;;;;;20.98;9.95;;;;;;;2.40;75.47;92258.00;5063042;28;20311;-87
2023/12/22 04:02:03;;;;;;;18.45;9.52;;;;;;;2.43;75.31;92246.91;5063105;28;20025;-87
2023/12/22 04:04:28;;;;;;;21.60;10.30;;;;;;;2.46;75.36;92256.81;5062899;28;20028;-86
2023/12/22 04:06:54;;;;;;;21.33;10.43;;;;;;;2.50;75.16;92249.88;5062688;28;20020;-85
2023/12/22 04:09:19;;;;;;;25.58;11.98;;;;;;;2.54;75.21;92248.19;5062386;28;20032;-86
2023/12/22 04:11:45;;;;;;;19.05;10.30;;;;;;;2.57;75.20;92254.72;5062815;28;20021;-87
2023/12/22 04:14:10;;;;;;;29.25;10.65;;;;;;;2.60;75.23;92259.38;5062716;28;20032;-87
2023/12/22 04:16:38;;;;;;;22.77;10.73;;;;;;;2.64;75.24;92249.78;5063030;28;20025;-87
2023/12/22 04:19:04;;;;;;;26.73;12.90;;;;;;;2.61;75.32;92245.16;5062600;28;20089;-86
2023/12/22 04:21:29;;;;;;;24.88;10.73;;;;;;;2.64;75.16;92246.38;5062913;28;20043;-87
2023/12/22 04:23:55;;;;;;;36.72;10.65;;;;;;;2.58;75.69;92241.25;5061499;28;20040;-85
2023/12/22 04:26:20;;;;;;;30.13;11.73;;;;;;;2.59;75.40;92236.78;5062896;28;20314;-87
2023/12/22 04:28:46;;;;;;;20.05;9.73;;;;;;;2.61;75.55;92234.63;5061795;28;20100;-87
2023/12/22 04:31:11;;;;;;;21.20;10.23;;;;;;;2.63;75.78;92236.97;5062907;28;20067;-85
2023/12/22 04:33:36;;;;;;;18.67;10.10;;;;;;;2.60;75.72;92225.94;5062404;28;20025;-85
2023/12/22 04:36:02;;;;;;;23.70;11.13;;;;;;;2.67;75.51;92233.41;5062478;28;20091;-86
2023/12/22 04:38:28;;;;;;;25.63;10.48;;;;;;;2.70;75.67;92232.03;5062459;28;20045;-87
2023/12/22 04:40:53;;;;;;;20.65;10.30;;;;;;;2.70;75.78;92239.91;5062771;28;20047;-82
2023/12/22 04:43:18;;;;;;;26.38;10.38;;;;;;;2.72;75.55;92224.59;5062473;28;20291;-85
2023/12/22 04:45:44;;;;;;;26.50;11.88;;;;;;;2.73;75.49;92226.16;5062490;28;20035;-86
2023/12/22 04:48:09;;;;;;;24.08;10.85;;;;;;;2.76;75.72;92226.31;5062444;28;20029;-87
2023/12/22 04:50:35;;;;;;;21.35;11.05;;;;;;;2.76;75.83;92215.78;5062468;28;20064;-85
2023/12/22 04:53:00;;;;;;;22.98;10.60;;;;;;;2.79;75.61;92215.19;5062157;28;20044;-85
2023/12/22 04:55:25;;;;;;;23.27;10.75;;;;;;;2.81;75.50;92207.00;5062600;28;20032;-84
2023/12/22 04:57:51;;;;;;;26.55;10.95;;;;;;;2.78;75.88;92220.75;5062313;28;20240;-85
2023/12/22 05:00:16;;;;;;;20.17;10.48;;;;;;;2.78;75.96;92215.50;5062011;28;20210;-85
2023/12/22 05:02:42;;;;;;;22.52;10.88;;;;;;;2.79;76.02;92203.91;5061137;28;20028;-85
2023/12/22 05:05:08;;;;;;;20.55;10.82;;;;;;;2.79;75.92;92209.16;5060643;28;20019;-85
2023/12/22 05:07:33;;;;;;;19.60;10.40;;;;;;;2.74;75.52;92211.91;5060929;28;20017;-87
2023/12/22 05:09:59;;;;;;;22.45;10.63;;;;;;;2.72;75.39;92203.56;5060606;28;20280;-86
2023/12/22 05:12:24;;;;;;;25.10;10.50;;;;;;;2.71;75.72;92202.78;5060773;28;20025;-87
2023/12/22 05:14:50;;;;;;;19.38;10.63;;;;;;;2.73;75.42;92194.59;5060778;28;20028;-87
2023/12/22 05:17:15;;;;;;;22.63;11.63;;;;;;;2.74;75.20;92194.28;5060843;28;20025;-86
2023/12/22 05:19:40;;;;;;;24.15;10.32;;;;;;;2.74;75.28;92206.66;5060703;28;20009;-86
2023/12/22 05:22:06;;;;;;;22.88;10.48;;;;;;;2.72;75.18;92199.06;5062033;28;20418;-86
2023/12/22 05:24:31;;;;;;;22.20;12.43;;;;;;;2.73;75.65;92199.84;5065321;28;20367;-86
2023/12/22 05:26:57;;;;;;;25.13;10.73;;;;;;;2.75;75.89;92202.97;5066022;28;20328;-86
2023/12/22 05:29:22;;;;;;;26.40;11.15;;;;;;;2.74;76.20;92217.94;5067211;28;20302;-87
2023/12/22 05:31:48;;;;;;;27.30;10.98;;;;;;;2.78;76.01;92204.97;5065925;28;20027;-86
2023/12/22 05:34:13;;;;;;;23.73;10.98;;;;;;;2.81;76.01;92222.78;5065709;28;20067;-87
2023/12/22 05:36:38;;;;;;;22.45;11.15;;;;;;;2.84;75.87;92221.41;5065658;28;20252;-86
2023/12/22 05:39:04;;;;;;;20.05;10.18;;;;;;;2.80;75.52;92205.44;5065324;28;20043;-87
2023/12/22 05:41:29;;;;;;;19.27;10.57;;;;;;;2.72;75.94;92230.63;5065438;28;20017;-86
2023/12/22 05:43:55;;;;;;;24.75;12.38;;;;;;;2.76;75.80;92239.47;5064163;28;20044;-86
2023/12/22 05:46:20;;;;;;;23.38;11.20;;;;;;;2.78;75.70;92208.38;5064538;28;20027;-87
2023/12/22 05:48:46;;;;;;;24.23;11.32;;;;;;;2.82;75.54;92203.28;5065537;28;20031;-87
2023/12/22 05:51:14;;;;;;;17.92;9.73;;;;;;;2.84;75.17;92190.59;5065078;28;20123;-86
2023/12/22 05:53:40;;;;;;;20.20;10.00;;;;;;;2.86;75.04;92172.66;5065408;28;20135;-87
2023/12/22 05:56:18;;;;;;;24.58;9.85;;;;;;;2.80;75.06;92193.06;5065498;28;20020;-86
2023/12/22 05:58:43;;;;;;;16.10;9.40;;;;;;;2.79;75.38;92190.75;5065137;28;20053;-87
2023/12/22 06:01:19;;;;;;;21.73;9.55;;;;;;;2.82;75.34;92198.03;5064111;28;20099;-87
2023/12/22 06:03:46;;;;;;;20.50;10.38;;;;;;;2.87;75.54;92200.53;5065065;28;20029;-85
2023/12/22 06:06:11;;;;;;;25.85;11.45;;;;;;;2.91;75.13;92184.88;5064854;28;20021;-86
2023/12/22 06:08:38;;;;;;;21.80;10.80;;;;;;;2.91;75.31;92190.94;5063727;28;20108;-85
2023/12/22 06:11:03;;;;;;;21.42;10.48;;;;;;;2.92;75.18;92205.63;5065088;28;20231;-85
2023/12/22 06:13:28;;;;;;;21.30;10.88;;;;;;;2.90;75.33;92209.66;5064743;28;20025;-84
2023/12/22 06:15:54;;;;;;;25.42;11.13;;;;;;;2.90;75.37;92209.66;5065036;28;20311;-85
2023/12/22 06:18:20;;;;;;;22.65;11.00;;;;;;;2.93;75.44;92230.88;5064950;28;20017;-87
2023/12/22 06:20:45;;;;;;;20.65;9.60;;;;;;;2.97;75.55;92218.66;5064759;28;20020;-86
2023/12/22 06:23:10;;;;;;;21.50;10.18;;;;;;;2.86;75.50;92225.28;5064709;28;20242;-85
2023/12/22 06:25:36;;;;;;;20.33;10.45;;;;;;;2.81;75.62;92226.19;5064519;28;20067;-86
2023/12/22 06:28:01;;;;;;;19.30;10.05;;;;;;;2.89;75.63;92218.63;5064562;28;20192;-87
2023/12/22 06:30:27;;;;;;;21.52;9.68;;;;;;;2.96;75.56;92235.53;5064633;28;20016;-87
2023/12/22 06:32:52;;;;;;;18.35;9.63;;;;;;;2.97;75.46;92221.28;5064235;28;20031;-86
2023/12/22 06:35:23;;;;;;;21.50;9.82;;;;;;;2.97;75.72;92220.50;5064690;28;20020;-86
2023/12/22 06:37:49;;;;;;;20.90;10.48;;;;;;;3.01;75.70;92231.97;5063231;28;20055;-87
2023/12/22 06:40:14;;;;;;;19.55;9.25;;;;;;;3.08;75.68;92248.09;5064543;28;20033;-86
2023/12/22 06:42:40;;;;;;;20.85;10.75;;;;;;;3.07;75.15;92232.59;5063271;28;20017;-87
2023/12/22 06:45:06;;;;;;;23.05;11.32;;;;;;;3.01;75.29;92222.25;5063069;28;20017;-88
2023/12/22 06:47:31;;;;;;;23.73;9.25;;;;;;;3.00;75.34;92225.16;5062862;28;20024;-87
2023/12/22 06:49:56;;;;;;;19.00;9.38;;;;;;;3.03;75.17;92229.81;5063018;28;20327;-86
2023/12/22 06:52:22;;;;;;;16.95;8.98;;;;;;;3.06;75.55;92231.06;5064288;28;20031;-87
2023/12/22 06:54:47;;;;;;;21.20;10.27;;;;;;;3.02;75.46;92233.53;5064114;28;20039;-85
2023/12/22 06:57:13;;;;;;;21.77;9.00;;;;;;;3.02;75.67;92233.53;5064228;28;20091;-87
2023/12/22 06:59:39;;;;;;;21.85;10.30;;;;;;;3.06;75.71;92238.97;5063763;28;20023;-86
2023/12/22 07:02:04;;;;;;;16.08;9.18;;;;;;;3.08;75.86;92227.03;5063742;28;20017;-85
2023/12/22 07:04:29;;;;;;;19.55;9.27;;;;;;;3.12;75.84;92232.47;5063762;28;20036;-86
2023/12/22 07:06:55;;;;;;;18.08;9.52;;;;;;;3.16;76.16;92233.41;5064017;28;20024;-86
2023/12/22 07:09:20;;;;;;;16.35;9.15;;;;;;;3.21;76.50;92246.44;5063754;28;20283;-86
2023/12/22 07:11:48;;;;;;;26.73;9.95;;;;;;;3.30;76.32;92217.50;5063631;28;20095;-84
2023/12/22 07:14:15;;;;;;;22.23;11.35;;;;;;;3.34;76.21;92248.19;5063576;28;20028;-87
2023/12/22 07:16:41;;;;;;;21.02;10.30;;;;;;;3.40;76.12;92233.00;5063638;28;20280;-86
2023/12/22 07:19:07;;;;;;;18.67;10.07;;;;;;;3.42;76.29;92236.88;5063723;28;20025;-85
2023/12/22 07:21:33;;;;;;;28.63;15.23;;;;;;;3.45;76.65;92247.88;5063444;28;20255;-87
2023/12/22 07:23:58;;;;;;;25.73;11.77;;;;;;;3.49;76.68;92251.44;5063825;28;20020;-87
2023/12/22 07:26:26;;;;;;;19.48;9.77;;;;;;;3.51;76.79;92257.19;5063775;28;20033;-87
2023/12/22 07:28:52;;;;;;;27.50;12.63;;;;;;;3.57;76.95;92243.56;5063753;28;20051;-85
2023/12/22 07:31:17;;;;;;;25.75;12.32;;;;;;;3.60;76.73;92255.31;5063394;28;20027;-88
2023/12/22 07:33:43;;;;;;;27.38;13.50;;;;;;;3.61;76.95;92243.72;5063913;28;20074;-87
2023/12/22 07:36:08;;;;;;;28.58;13.60;;;;;;;3.64;77.04;92258.91;5063432;28;20024;-80
2023/12/22 07:38:34;;;;;;;34.08;12.52;;;;;;;3.69;77.00;92260.63;5063082;28;20027;-86
2023/12/22 07:40:59;;;;;;;23.33;11.20;;;;;;;3.77;77.03;92255.34;5063370;28;20033;-86
2023/12/22 07:43:25;;;;;;;19.77;9.43;;;;;;;3.73;77.27;92246.50;5063219;28;20032;-87
2023/12/22 07:45:51;;;;;;;23.88;9.98;;;;;;;3.82;77.57;92241.25;5062530;28;20359;-85
2023/12/22 07:48:17;;;;;;;21.63;9.25;;;;;;;3.90;77.41;92258.91;5062981;28;20024;-87
2023/12/22 07:50:42;;;;;;;19.63;9.88;;;;;;;3.91;77.58;92259.69;5063540;28;20048;-84
2023/12/22 07:53:08;;;;;;;27.45;11.35;;;;;;;3.96;77.43;92267.44;5062000;28;20032;-81
2023/12/22 07:55:34;;;;;;;16.77;9.52;;;;;;;4.01;77.44;92275.22;5061886;28;20075;-82
2023/12/22 07:57:59;;;;;;;23.10;11.65;;;;;;;4.09;77.43;92273.63;5063079;28;20052;-82
2023/12/22 08:00:25;;;;;;;21.30;10.48;;;;;;;4.14;76.84;92268.22;5062899;28;20035;-86
2023/12/22 08:02:52;;;;;;;18.83;10.02;;;;;;;4.13;76.60;92288.56;5064233;28;20013;-84
2023/12/22 08:05:18;;;;;;;24.20;10.27;;;;;;;4.14;76.70;92290.09;5061985;28;20016;-84
2023/12/22 08:08:26;;;;;;;28.63;10.95;;;;;;;4.18;76.60;92296.28;5063444;28;20087;-86
2023/12/22 08:10:51;;;;;;;20.08;10.57;;;;;;;4.16;76.65;92303.75;5038805;28;20045;-82
2023/12/22 08:13:17;;;;;;;19.88;10.40;;;;;;;4.06;76.89;92306.69;5040790;28;20350;-85
2023/12/22 08:15:43;;;;;;;26.05;10.75;;;;;;;4.10;77.10;92301.56;5058106;28;20057;-90
2023/12/22 08:18:09;;;;;;;21.13;10.48;;;;;;;4.09;76.95;92311.34;5063500;28;20017;-83
2023/12/22 08:20:34;;;;;;;20.48;10.88;;;;;;;4.17;77.03;92301.88;5063158;28;20028;-86
2023/12/22 08:23:00;;;;;;;21.27;10.63;;;;;;;4.18;77.39;92313.97;5062956;28;20070;-90
2023/12/22 08:25:25;;;;;;;18.08;9.55;;;;;;;4.17;76.94;92336.16;5062329;28;20251;-85
2023/12/22 08:27:51;;;;;;;21.20;10.98;;;;;;;4.13;77.63;92322.03;5062950;28;20048;-79
2023/12/22 08:30:17;;;;;;;21.30;11.30;;;;;;;4.13;78.71;92308.84;5062672;28;20032;-84
2023/12/22 08:32:42;;;;;;;15.85;9.27;;;;;;;4.09;78.46;92337.72;5063987;28;20028;-77
2023/12/22 08:35:08;;;;;;;22.10;10.52;;;;;;;3.97;79.09;92322.50;5061710;28;20031;-78
2023/12/22 08:37:33;;;;;;;20.15;11.05;;;;;;;3.98;79.84;92315.38;5061692;28;20024;-80
2023/12/22 08:39:59;;;;;;;30.65;11.43;;;;;;;4.01;80.64;92309.50;5061762;28;20072;-79
2023/12/22 08:42:25;;;;;;;22.38;12.05;;;;;;;4.01;80.84;92304.97;5062481;28;20028;-77
2023/12/22 08:44:51;;;;;;;20.90;11.02;;;;;;;3.91;81.00;92326.38;5061487;28;20033;-81
2023/12/22 08:47:16;;;;;;;27.25;10.98;;;;;;;3.93;81.21;92324.22;5063223;28;20337;-81
2023/12/22 08:49:42;;;;;;;23.45;11.23;;;;;;;4.00;81.11;92310.56;5063248;28;20017;-82
2023/12/22 08:52:07;;;;;;;27.23;10.82;;;;;;;4.09;81.64;92306.09;5061942;28;20334;-80
2023/12/22 08:54:34;;;;;;;22.77;9.38;;;;;;;4.10;81.60;92304.97;5062973;28;20025;-83
2023/12/22 08:57:00;;;;;;;21.88;9.77;;;;;;;4.19;81.41;92305.78;5063748;28;20108;-83
2023/12/22 08:59:26;;;;;;;25.55;10.13;;;;;;;4.29;81.14;92315.22;5066806;28;20021;-80
2023/12/22 09:01:51;;;;;;;27.48;10.77;;;;;;;4.30;80.99;92316.78;5066772;28;20069;-82
2023/12/22 09:04:17;;;;;;;28.20;11.90;;;;;;;4.43;80.76;92328.25;5066314;28;20091;-80
2023/12/22 09:06:43;;;;;;;28.92;11.30;;;;;;;4.51;80.75;92330.09;5066417;28;20032;-80
2023/12/22 09:09:09;;;;;;;29.65;11.13;;;;;;;4.50;80.66;92335.69;5066288;28;20075;-80
2023/12/22 09:11:35;;;;;;;24.17;11.65;;;;;;;4.55;80.77;92338.94;5066477;28;20044;-81
2023/12/22 09:14:00;;;;;;;26.30;11.65;;;;;;;4.62;80.36;92349.03;5065109;28;20066;-80
2023/12/22 09:16:26;;;;;;;21.58;11.52;;;;;;;4.57;80.20;92349.97;5065268;28;20052;-85
2023/12/22 09:18:51;;;;;;;39.80;12.50;;;;;;;4.63;79.90;92353.97;5065773;28;20021;-85
2023/12/22 09:21:17;;;;;;;31.58;13.25;;;;;;;4.69;80.05;92348.56;5066507;28;20219;-81
2023/12/22 09:23:46;;;;;;;26.55;12.40;;;;;;;4.79;80.36;92364.06;5066073;28;20040;-84
2023/12/22 09:26:15;;;;;;;30.15;12.48;;;;;;;4.87;80.00;92354.59;5065206;28;20021;-76
2023/12/22 09:28:41;;;;;;;29.73;11.38;;;;;;;4.95;79.84;92364.34;5065586;28;20052;-76
2023/12/22 09:31:09;;;;;;;22.48;11.40;;;;;;;5.01;79.50;92355.19;5065636;28;20062;-77
2023/12/22 09:33:34;;;;;;;25.45;10.13;;;;;;;5.03;78.99;92353.75;5065551;28;20219;-76
2023/12/22 09:35:59;;;;;;;22.27;10.68;;;;;;;4.99;78.90;92352.84;5065547;28;20028;-88
2023/12/22 09:38:25;;;;;;;25.85;11.15;;;;;;;5.07;78.76;92348.63;5066156;28;20029;-88
2023/12/22 09:40:51;;;;;;;23.20;10.50;;;;;;;5.10;78.75;92344.59;5066751;28;20070;-88
2023/12/22 09:43:19;;;;;;;27.25;12.02;;;;;;;5.14;79.02;92338.34;5066304;28;20017;-88
2023/12/22 09:45:46;;;;;;;25.40;11.25;;;;;;;5.19;79.31;92321.53;5064823;28;20046;-88
2023/12/22 09:48:17;;;;;;;31.75;12.45;;;;;;;5.23;79.13;92330.38;5066989;28;20020;-89
2023/12/22 09:50:46;;;;;;;30.67;12.55;;;;;;;5.20;78.85;92321.25;5065915;28;20177;-89
2023/12/22 09:53:13;;;;;;;31.75;14.43;;;;;;;5.24;79.09;92313.47;5065168;28;20028;-88
2023/12/22 09:55:42;;;;;;;24.77;11.80;;;;;;;5.29;79.37;92315.16;5065051;28;20025;-87
2023/12/22 09:58:10;;;;;;;24.15;12.10;;;;;;;5.37;79.56;92312.47;5064826;28;20186;-87
2023/12/22 10:00:36;;;;;;;25.25;11.75;;;;;;;5.41;79.40;92308.13;5066430;28;20025;-87
2023/12/22 10:03:05;;;;;;;22.60;11.65;;;;;;;5.50;79.19;92308.06;5066204;28;20021;-91
2023/12/22 10:05:34;;;;;;;28.92;11.77;;;;;;;5.53;79.55;92301.34;5068783;28;20025;-92
2023/12/22 10:08:01;;;;;;;24.95;11.15;;;;;;;5.63;79.39;92311.56;5068644;28;20032;-87
2023/12/22 10:10:30;;;;;;;23.23;11.13;;;;;;;5.68;79.44;92306.09;5066007;28;20021;-86
2023/12/22 10:12:56;;;;;;;23.20;12.00;;;;;;;5.72;79.13;92304.38;5065503;28;20025;-86
2023/12/22 10:15:25;;;;;;;22.13;10.90;;;;;;;5.79;78.55;92304.63;5065968;28;20307;-85
2023/12/22 10:17:54;;;;;;;27.83;11.65;;;;;;;5.80;78.41;92300.91;5065830;28;20020;-85
2023/12/22 10:20:19;;;;;;;28.00;12.15;;;;;;;5.81;78.38;92297.16;5064630;28;20029;-86
2023/12/22 10:22:46;;;;;;;23.35;11.90;;;;;;;5.90;78.34;92291.03;5064258;28;20031;-86
2023/12/22 10:25:14;;;;;;;25.50;13.88;;;;;;;5.94;78.49;92281.34;5065547;28;20048;-87
2023/12/22 10:27:42;;;;;;;41.67;14.02;;;;;;;6.00;78.43;92274.81;5065123;28;20115;-87
2023/12/22 10:30:09;;;;;;;35.08;16.63;;;;;;;6.09;78.41;92261.53;5064518;28;20092;-87
2023/12/22 10:32:41;;;;;;;36.40;17.67;;;;;;;6.25;78.32;92264.34;5065625;28;20025;-88
2023/12/22 10:35:08;;;;;;;32.40;14.23;;;;;;;6.39;77.70;92264.84;5064295;28;20020;-87
2023/12/22 10:37:33;;;;;;;23.23;11.23;;;;;;;6.34;76.14;92257.13;5065901;28;20044;-87
2023/12/22 10:39:59;;;;;;;26.63;12.65;;;;;;;6.19;76.33;92259.25;5064834;28;20092;-87
2023/12/22 10:42:24;;;;;;;25.25;12.52;;;;;;;6.14;78.11;92250.75;5063824;28;20028;-86
2023/12/22 10:44:50;;;;;;;31.77;13.95;;;;;;;6.24;79.21;92250.34;5064970;28;20044;-87
2023/12/22 10:47:17;;;;;;;28.10;14.02;;;;;;;6.13;80.72;92239.41;5064874;28;20028;-87
2023/12/22 10:49:46;;;;;;;37.65;15.27;;;;;;;6.38;80.56;92247.44;5064017;28;20197;-87
2023/12/22 10:52:20;;;;;;;31.92;15.10;;;;;;;6.60;80.47;92225.88;5065035;28;20021;-89
2023/12/22 10:54:48;;;;;;;35.50;14.40;;;;;;;6.86;80.03;92222.19;5064299;28;20033;-87
2023/12/22 10:57:19;;;;;;;29.73;14.75;;;;;;;7.08;78.89;92223.63;5063859;28;20047;-88
2023/12/22 10:59:49;;;;;;;28.30;14.63;;;;;;;7.26;77.74;92205.63;5063398;28;20304;-88
2023/12/22 11:02:19;;;;;;;22.60;13.68;;;;;;;7.34;77.77;92211.91;5065248;28;20181;-88
2023/12/22 11:04:56;;;;;;;34.47;13.98;;;;;;;7.41;77.49;92199.66;5064652;28;20231;-86
2023/12/22 11:07:26;;;;;;;23.40;13.43;;;;;;;7.10;77.36;92208.16;5064788;28;20016;-86
2023/12/22 11:09:55;;;;;;;25.17;11.98;;;;;;;7.06;76.93;92204.63;5063547;28;20020;-87
2023/12/22 11:12:23;;;;;;;22.25;12.88;;;;;;;7.13;77.31;92214.69;5064521;28;20017;-86
2023/12/22 11:14:50;;;;;;;25.25;12.63;;;;;;;7.26;77.46;92202.22;5064993;28;20223;-86
2023/12/22 11:17:20;;;;;;;22.85;13.25;;;;;;;7.21;78.48;92180.13;5063250;28;20017;-87
2023/12/22 11:19:49;;;;;;;25.23;10.73;;;;;;;7.28;76.84;92189.41;5063379;28;20024;-86
2023/12/22 11:22:17;;;;;;;7.20;3.75;;;;;;;7.05;72.96;92176.59;5062968;28;20657;-87